Time;durP1;ratioP1;P1;durP2;ratioP2;P2;SDS_P1;SDS_P2;PMS_P1;PMS_P2;Temp;Humidity;BMP_temperature;BMP_pressure;BME280_temperature;BME280_humidity;BME280_pressure;Samples;Min_cycle;Max_cycle;Signal;HPM_P1;HPM_P2
2022/10/19 00:01:23;;;;;;;12.32;7.40;;;;;;;13.17;54.17;100406.06;7712161;32;40147;-80
2022/10/19 00:05:39;;;;;;;13.25;8.05;;;;;;;13.49;53.20;100398.38;7698596;32;39970;-80
2022/10/19 00:09:55;;;;;;;12.70;7.10;;;;;;;13.08;54.52;100401.12;7711954;32;38481;-79
2022/10/19 00:14:14;;;;;;;12.77;7.05;;;;;;;13.30;54.06;100408.25;7712413;32;37688;-80
2022/10/19 00:18:30;;;;;;;13.23;7.18;;;;;;;13.08;54.57;100392.09;7948286;26;39364;-77
2022/10/19 00:22:49;;;;;;;15.13;7.22;;;;;;;13.14;54.29;100389.09;7711982;32;41324;-77
2022/10/19 00:27:05;;;;;;;13.20;7.50;;;;;;;13.39;53.61;100390.19;7698602;32;38602;-77
2022/10/19 00:31:22;;;;;;;14.32;7.65;;;;;;;13.31;53.69;100390.69;7712291;32;36716;-77
2022/10/19 00:35:41;;;;;;;15.65;8.27;;;;;;;13.22;54.37;100378.66;7689751;32;40069;-77
2022/10/19 00:39:57;;;;;;;19.83;8.50;;;;;;;13.22;54.77;100384.16;7696504;32;40621;-77
2022/10/19 00:44:14;;;;;;;13.15;7.80;;;;;;;13.51;54.45;100368.78;7711885;32;38742;-77
2022/10/19 00:48:32;;;;;;;19.10;8.25;;;;;;;13.34;55.40;100368.28;7712062;32;37849;-77
2022/10/19 00:52:48;;;;;;;13.25;7.72;;;;;;;13.46;55.46;100371.53;7710454;32;41808;-77
2022/10/19 00:57:05;;;;;;;15.63;8.07;;;;;;;13.59;54.70;100370.16;7697997;32;39918;-77
2022/10/19 01:01:23;;;;;;;15.48;7.57;;;;;;;13.62;55.23;100374.25;7711484;32;38618;-77
2022/10/19 01:05:40;;;;;;;12.23;7.32;;;;;;;13.60;54.83;100358.09;7711960;32;37993;-77
2022/10/19 01:09:56;;;;;;;17.30;8.02;;;;;;;13.86;54.06;100355.25;7698164;32;39224;-77
2022/10/19 01:14:43;;;;;;;11.95;7.43;;;;;;;13.65;54.36;100351.78;7698037;32;40105;-77
2022/10/19 01:19:09;;;;;;;16.45;7.78;;;;;;;13.72;53.78;100338.59;7699097;32;38079;-77
2022/10/19 01:23:58;;;;;;;17.60;8.50;;;;;;;13.44;54.50;100332.66;7698354;32;37733;-77
2022/10/19 01:28:27;;;;;;;15.27;7.82;;;;;;;13.53;53.47;100352.09;7699873;32;39327;-77
2022/10/19 01:33:03;;;;;;;17.33;9.27;;;;;;;13.92;52.53;100336.88;7711125;32;39702;-77
2022/10/19 01:37:36;;;;;;;19.52;8.80;;;;;;;13.42;54.41;100334.84;7711440;32;37752;-77
2022/10/19 01:42:21;;;;;;;19.27;10.02;;;;;;;13.39;54.54;100340.88;7697231;32;37300;-77
2022/10/19 01:46:48;;;;;;;20.35;9.55;;;;;;;13.57;54.24;100344.12;7710499;32;39142;-77
2022/10/19 01:51:13;;;;;;;18.45;8.70;;;;;;;13.39;54.67;100351.84;7698211;32;39915;-77
2022/10/19 01:55:31;;;;;;;16.75;9.35;;;;;;;13.15;55.22;100346.09;7710111;32;38748;-77
2022/10/19 01:59:48;;;;;;;16.80;9.13;;;;;;;13.37;54.71;100342.28;7698731;32;37089;-78
2022/10/19 02:04:04;;;;;;;19.10;9.07;;;;;;;13.26;54.84;100338.69;7697623;32;39285;-79
2022/10/19 02:08:26;;;;;;;13.62;7.80;;;;;;;13.24;54.28;100335.41;7710711;32;40850;-77
2022/10/19 02:12:43;;;;;;;15.82;8.57;;;;;;;13.41;53.56;100343.34;7711065;32;38015;-78
2022/10/19 02:17:04;;;;;;;13.93;8.45;;;;;;;13.62;53.12;100327.69;7711119;32;36986;-78
2022/10/19 02:21:21;;;;;;;18.58;9.30;;;;;;;13.62;53.25;100327.69;7682762;32;40021;-77
2022/10/19 02:25:37;;;;;;;15.00;9.23;;;;;;;13.76;52.96;100328.72;7684039;32;41165;-78
2022/10/19 02:29:53;;;;;;;16.52;8.93;;;;;;;13.96;52.28;100332.50;7682789;32;38760;-78
2022/10/19 02:34:10;;;;;;;24.08;9.82;;;;;;;14.00;52.28;100325.31;7695450;32;37925;-77
2022/10/19 02:38:26;;;;;;;15.90;9.23;;;;;;;13.86;52.69;100325.94;7681739;32;39303;-76
2022/10/19 02:42:59;;;;;;;15.15;8.88;;;;;;;13.99;52.59;100331.94;7681967;32;40868;-77
2022/10/19 02:47:24;;;;;;;17.40;10.83;;;;;;;14.00;53.03;100328.06;7682413;32;37750;-78
2022/10/19 02:52:01;;;;;;;16.75;10.07;;;;;;;13.75;54.26;100327.09;7682655;32;37304;-77
2022/10/19 02:56:17;;;;;;;15.65;9.45;;;;;;;13.93;53.74;100338.53;7679828;32;40385;-76
2022/10/19 03:00:33;;;;;;;22.87;10.32;;;;;;;14.04;54.00;100335.47;7683441;32;40039;-77
2022/10/19 03:04:49;;;;;;;17.30;9.77;;;;;;;13.87;54.09;100337.72;7683093;32;38067;-78
2022/10/19 03:09:05;;;;;;;18.00;10.05;;;;;;;13.94;54.22;100351.94;7683349;32;37072;-78
2022/10/19 03:13:22;;;;;;;18.17;9.95;;;;;;;13.78;54.97;100353.94;7682291;32;40050;-78
2022/10/19 03:17:38;;;;;;;21.90;10.75;;;;;;;13.95;54.19;100350.84;7682139;32;40834;-77
2022/10/19 03:21:54;;;;;;;20.27;10.77;;;;;;;13.87;54.45;100355.00;7706079;32;38719;-78
2022/10/19 03:26:13;;;;;;;21.80;11.85;;;;;;;13.75;54.69;100349.00;7709586;32;37121;-78
2022/10/19 03:30:29;;;;;;;22.85;12.70;;;;;;;13.80;54.57;100343.50;7707300;32;39648;-77
2022/10/19 03:34:45;;;;;;;20.50;11.95;;;;;;;14.06;53.68;100348.87;7706108;32;39786;-77
2022/10/19 03:39:12;;;;;;;17.15;11.23;;;;;;;14.05;53.72;100339.00;7705918;32;37798;-77
2022/10/19 03:43:28;;;;;;;18.75;11.68;;;;;;;13.93;54.16;100333.03;7705858;32;37876;-78
2022/10/19 03:47:49;;;;;;;19.67;11.07;;;;;;;14.03;54.75;100338.47;7693814;32;38927;-77
2022/10/19 03:52:05;;;;;;;24.33;12.35;;;;;;;13.83;55.64;100342.13;7708979;32;40722;-77
2022/10/19 03:56:23;;;;;;;21.33;11.68;;;;;;;13.43;57.55;100358.38;7708758;32;37843;-77
2022/10/19 04:00:39;;;;;;;23.48;12.20;;;;;;;13.57;56.57;100366.84;7708777;32;36702;-78
2022/10/19 04:04:56;;;;;;;23.33;11.98;;;;;;;13.56;56.23;100351.53;7708775;32;38959;-77
2022/10/19 04:09:15;;;;;;;23.83;13.05;;;;;;;13.62;55.29;100349.59;7710055;32;39941;-76
2022/10/19 04:13:32;;;;;;;20.98;11.73;;;;;;;13.50;55.80;100358.09;7712472;32;38794;-78
2022/10/19 04:17:48;;;;;;;23.95;13.18;;;;;;;13.46;55.61;100355.09;7712479;32;38041;-77
2022/10/19 04:22:04;;;;;;;19.52;12.07;;;;;;;13.31;56.13;100342.28;7712346;32;40063;-77
2022/10/19 04:26:21;;;;;;;22.45;12.00;;;;;;;13.69;54.62;100344.63;7712421;32;40868;-78
2022/10/19 04:30:37;;;;;;;21.50;12.23;;;;;;;13.49;56.74;100351.00;7712206;32;38170;-77
2022/10/19 04:34:53;;;;;;;18.30;11.38;;;;;;;13.37;57.81;100356.78;7712375;32;37044;-77
2022/10/19 04:39:09;;;;;;;23.40;11.90;;;;;;;12.84;59.39;100364.44;7712153;32;39096;-77
2022/10/19 04:43:25;;;;;;;20.77;12.00;;;;;;;13.37;57.88;100370.47;7712198;32;40689;-78
2022/10/19 04:47:41;;;;;;;25.70;12.57;;;;;;;13.32;57.97;100378.69;7712107;32;38643;-78
2022/10/19 04:51:57;;;;;;;20.55;12.25;;;;;;;13.23;58.27;100363.88;7712163;32;38106;-77
2022/10/19 04:56:19;;;;;;;21.10;12.40;;;;;;;13.52;57.22;100367.69;7712062;32;40039;-78
2022/10/19 05:00:37;;;;;;;22.77;12.05;;;;;;;13.48;57.22;100363.88;7698072;32;39577;-78
2022/10/19 05:04:53;;;;;;;19.83;11.98;;;;;;;13.12;58.37;100363.06;7712025;32;37072;-77
2022/10/19 05:09:10;;;;;;;19.40;11.95;;;;;;;13.29;57.54;100363.59;7712424;32;35331;-77
2022/10/19 05:13:26;;;;;;;20.55;11.68;;;;;;;13.11;58.37;100372.37;7711857;32;39365;-77
2022/10/19 05:17:42;;;;;;;26.30;12.52;;;;;;;13.30;57.56;100369.91;7711779;32;39997;-77
2022/10/19 05:21:58;;;;;;;21.70;12.25;;;;;;;13.32;57.36;100373.22;7710298;32;38022;-78
2022/10/19 05:26:17;;;;;;;22.02;12.15;;;;;;;13.19;57.51;100388.25;7711710;32;37307;-77
2022/10/19 05:30:33;;;;;;;18.87;11.40;;;;;;;13.08;58.02;100400.31;7711857;32;39844;-77
2022/10/19 05:34:50;;;;;;;19.55;11.63;;;;;;;13.27;57.43;100398.66;7711636;32;39871;-78
2022/10/19 05:39:14;;;;;;;21.23;12.93;;;;;;;13.03;58.09;100390.16;7711579;32;38046;-78
2022/10/19 05:43:30;;;;;;;20.83;12.43;;;;;;;13.06;58.13;100384.16;7711612;32;38028;-78
2022/10/19 05:47:46;;;;;;;18.60;11.80;;;;;;;12.93;58.64;100393.72;7711546;32;39280;-79
2022/10/19 05:52:03;;;;;;;21.60;12.13;;;;;;;12.88;58.81;100403.84;7711395;32;40752;-76
2022/10/19 05:56:24;;;;;;;20.30;10.98;;;;;;;13.21;60.01;100407.13;7711290;32;38799;-75
2022/10/19 06:00:41;;;;;;;20.58;12.43;;;;;;;13.74;67.30;100410.37;7711322;32;37204;-75
2022/10/19 06:04:57;;;;;;;20.88;11.85;;;;;;;14.49;59.73;100414.19;7711279;32;39298;-74
2022/10/19 06:09:13;;;;;;;20.52;12.07;;;;;;;14.83;57.68;100414.28;7711286;32;40015;-76
2022/10/19 06:13:29;;;;;;;20.80;12.65;;;;;;;14.83;54.87;100417.03;7711123;32;37823;-77
2022/10/19 06:17:45;;;;;;;26.37;11.68;;;;;;;14.32;54.27;100428.28;7711144;32;37221;-76
2022/10/19 06:22:02;;;;;;;24.92;12.60;;;;;;;14.29;54.72;100418.69;7710897;32;39362;-77
2022/10/19 06:26:19;;;;;;;21.50;12.27;;;;;;;14.26;55.22;100417.34;7710975;32;39966;-76
2022/10/19 06:30:39;;;;;;;19.87;12.20;;;;;;;14.09;55.94;100427.84;7710588;32;37953;-77
2022/10/19 06:34:55;;;;;;;18.25;11.98;;;;;;;14.22;55.91;100424.47;7710897;32;37211;-77
2022/10/19 06:39:12;;;;;;;20.65;11.80;;;;;;;14.35;55.84;100425.81;7710678;32;39236;-78
2022/10/19 06:43:28;;;;;;;21.92;12.30;;;;;;;14.28;56.21;100445.31;7710648;32;40898;-76
2022/10/19 06:47:44;;;;;;;18.50;12.15;;;;;;;14.38;56.21;100443.59;7710505;32;37974;-77
2022/10/19 06:52:06;;;;;;;22.67;13.20;;;;;;;14.01;57.86;100464.03;7710531;32;37925;-77
2022/10/19 06:56:26;;;;;;;24.98;13.05;;;;;;;14.17;57.93;100465.62;7710527;32;39341;-77
2022/10/19 07:00:42;;;;;;;24.45;13.80;;;;;;;14.32;57.35;100477.66;7710325;32;40001;-78
2022/10/19 07:04:58;;;;;;;22.67;12.88;;;;;;;14.19;58.18;100477.13;7710116;32;38941;-77
2022/10/19 07:09:21;;;;;;;;;;;;;;;14.35;58.06;100472.44;7710483;32;37939;-77
2022/10/19 07:13:38;;;;;;;24.60;13.55;;;;;;;14.96;56.88;100478.75;7710431;32;40304;-77
2022/10/19 07:17:54;;;;;;;24.85;12.50;;;;;;;14.51;58.07;100478.66;7708866;32;40017;-77
2022/10/19 07:22:10;;;;;;;25.15;12.50;;;;;;;13.47;62.27;100480.00;7709448;32;38981;-76
2022/10/19 07:26:33;;;;;;;20.00;12.05;;;;;;;14.37;60.12;100472.16;7709765;32;37067;-77
2022/10/19 07:30:49;;;;;;;19.83;10.63;;;;;;;14.09;60.84;100474.44;7709463;32;39461;-75
2022/10/19 07:35:06;;;;;;;19.73;10.43;;;;;;;14.69;59.98;100476.41;7709474;32;39892;-75
2022/10/19 07:39:22;;;;;;;19.45;10.02;;;;;;;15.00;58.69;100461.41;7709163;32;38163;-73
2022/10/19 07:43:39;;;;;;;21.95;10.23;;;;;;;15.24;58.55;100463.44;7710107;32;38207;-73
2022/10/19 07:47:55;;;;;;;16.10;9.98;;;;;;;14.82;60.12;100464.81;7712903;32;40136;-74
2022/10/19 07:52:11;;;;;;;13.93;8.88;;;;;;;15.44;57.89;100465.19;7712809;32;39627;-73
2022/10/19 07:56:28;;;;;;;15.32;8.70;;;;;;;16.09;55.57;100456.63;7712797;32;37961;-73
2022/10/19 08:00:45;;;;;;;14.80;7.72;;;;;;;16.39;55.00;100451.84;7699036;32;37118;-77
2022/10/19 08:05:01;;;;;;;15.00;7.57;;;;;;;16.48;54.56;100449.25;7712495;32;40021;-77
2022/10/19 08:09:22;;;;;;;12.63;7.28;;;;;;;16.55;54.99;100448.91;7712504;32;40032;-76
2022/10/19 08:14:01;;;;;;;14.75;6.50;;;;;;;15.38;57.45;100456.19;7710032;32;39247;-75
2022/10/19 08:18:17;;;;;;;9.23;5.25;;;;;;;15.72;57.01;100466.31;7709132;32;37998;-75
2022/10/19 08:22:34;;;;;;;10.80;5.35;;;;;;;16.46;55.49;100452.31;7710418;32;38864;-75
2022/10/19 08:26:51;;;;;;;11.25;5.05;;;;;;;16.13;56.15;100449.41;7711386;32;39959;-76
2022/10/19 08:31:15;;;;;;;8.82;4.50;;;;;;;17.02;54.67;100447.16;7712377;32;37989;-76
2022/10/19 08:35:31;;;;;;;7.07;4.40;;;;;;;17.52;52.49;100447.44;7698992;32;36878;-76
2022/10/19 08:39:47;;;;;;;10.23;4.22;;;;;;;17.59;52.05;100441.53;7712377;32;39043;-78
2022/10/19 08:44:22;;;;;;;9.88;4.70;;;;;;;17.26;52.94;100433.25;7712317;32;39870;-76
2022/10/19 08:48:41;;;;;;;8.70;3.92;;;;;;;17.37;52.59;100442.19;7712275;32;38762;-77
2022/10/19 08:53:04;;;;;;;7.45;3.70;;;;;;;18.31;51.34;100431.91;7712264;32;36981;-76
2022/10/19 08:57:25;;;;;;;4.25;2.70;;;;;;;18.29;50.19;100423.13;7698585;32;40249;-76
2022/10/19 09:02:02;;;;;;;5.07;2.62;;;;;;;18.55;48.33;100421.44;7711951;32;39741;-77
2022/10/19 09:06:26;;;;;;;8.88;3.05;;;;;;;19.08;47.01;100424.69;7698858;32;38203;-77
2022/10/19 09:10:45;;;;;;;3.42;2.00;;;;;;;19.51;46.41;100416.66;7698717;32;37155;-77
2022/10/19 09:15:05;;;;;;;3.40;1.92;;;;;;;20.33;43.19;100421.91;7711880;32;39305;-74
2022/10/19 09:19:24;;;;;;;11.75;2.35;;;;;;;20.58;41.88;100412.00;7711669;32;39849;-74
2022/10/19 09:23:57;;;;;;;3.33;2.25;;;;;;;20.71;41.81;100415.00;7711794;32;37923;-74
2022/10/19 09:28:39;;;;;;;8.33;2.30;;;;;;;21.24;40.41;100419.38;7711993;32;37009;-74
2022/10/19 09:32:59;;;;;;;4.30;2.15;;;;;;;21.94;39.96;100427.53;7711867;32;39881;-75
2022/10/19 09:37:18;;;;;;;4.37;2.10;;;;;;;22.23;39.20;100423.13;7711733;32;40081;-74
2022/10/19 09:41:54;;;;;;;10.52;2.10;;;;;;;22.38;37.64;100419.00;7711546;32;38535;-75
2022/10/19 09:46:17;;;;;;;3.10;1.77;;;;;;;23.02;36.39;100412.31;7711678;32;38117;-75
2022/10/19 09:50:35;;;;;;;4.32;2.20;;;;;;;22.87;36.35;100409.00;7711714;32;40529;-75
2022/10/19 09:55:03;;;;;;;5.68;2.20;;;;;;;22.93;35.88;100406.00;7711566;32;39757;-75
2022/10/19 09:59:27;;;;;;;3.50;2.12;;;;;;;23.60;35.66;100402.06;7698224;32;38610;-75
2022/10/19 10:03:48;;;;;;;3.35;2.00;;;;;;;23.52;35.55;100393.84;7698452;32;37786;-75
2022/10/19 10:08:15;;;;;;;2.35;1.35;;;;;;;23.31;34.77;100391.94;7710706;32;40131;-73
2022/10/19 10:12:33;;;;;;;5.85;1.40;;;;;;;22.46;33.06;100388.38;7698051;32;39806;-75
2022/10/19 10:17:01;;;;;;;1.55;1.17;;;;;;;23.29;32.63;100385.91;7697801;32;36926;-75
2022/10/19 10:21:33;;;;;;;1.17;1.10;;;;;;;23.56;30.81;100383.63;7710984;32;37891;-74
2022/10/19 10:25:49;;;;;;;1.77;1.33;;;;;;;22.95;32.65;100378.69;7711108;32;39919;-75
2022/10/19 10:30:09;;;;;;;1.87;1.27;;;;;;;23.23;30.77;100385.31;7711009;32;40526;-72
2022/10/19 10:34:57;;;;;;;2.35;1.73;;;;;;;22.38;32.61;100378.12;7710979;32;38610;-73
2022/10/19 10:39:16;;;;;;;5.15;1.73;;;;;;;22.67;30.81;100379.25;7710891;32;37191;-72
2022/10/19 10:43:35;;;;;;;3.17;1.80;;;;;;;22.21;32.26;100379.03;7697083;32;39384;-74
2022/10/19 10:47:52;;;;;;;2.80;1.45;;;;;;;22.44;33.33;100374.03;7710922;32;39642;-72
2022/10/19 10:52:16;;;;;;;1.92;1.50;;;;;;;22.93;32.71;100367.91;7710557;32;38097;-73
2022/10/19 10:56:33;;;;;;;2.70;1.80;;;;;;;22.73;31.31;100363.97;7710569;32;37070;-73
2022/10/19 11:00:50;;;;;;;1.95;1.30;;;;;;;23.31;31.36;100374.44;7710413;32;40552;-73
2022/10/19 11:05:20;;;;;;;3.90;1.50;;;;;;;23.13;30.65;100371.84;7696754;32;40085;-73
2022/10/19 11:09:41;;;;;;;2.20;1.33;;;;;;;22.29;32.05;100367.09;7710139;32;38882;-72
2022/10/19 11:14:45;;;;;;;4.05;1.58;;;;;;;23.22;31.17;100364.22;7696926;32;36066;-73
2022/10/19 11:19:18;;;;;;;2.92;1.60;;;;;;;23.18;31.42;100348.53;7693960;32;39079;-73
2022/10/19 11:23:56;;;;;;;3.72;1.55;;;;;;;23.20;30.61;100344.28;7701128;32;39887;-73
2022/10/19 11:28:12;;;;;;;2.25;1.70;;;;;;;23.32;29.95;100339.88;7713018;32;38591;-73
2022/10/19 11:32:46;;;;;;;1.67;1.33;;;;;;;23.65;29.73;100339.81;7713127;32;37863;-73
2022/10/19 11:37:17;;;;;;;2.37;1.45;;;;;;;24.21;28.99;100327.28;7713357;32;39364;-73
2022/10/19 11:41:55;;;;;;;1.30;1.20;;;;;;;24.00;27.60;100331.81;7713068;32;39915;-74
2022/10/19 11:46:24;;;;;;;1.20;1.10;;;;;;;24.72;28.45;100317.28;7713007;32;38581;-75
2022/10/19 11:51:05;;;;;;;2.55;1.42;;;;;;;24.25;27.49;100325.41;7713070;32;37010;-73
2022/10/19 11:55:51;;;;;;;1.30;1.15;;;;;;;24.05;29.57;100311.28;7712945;32;40135;-74
2022/10/19 12:00:17;;;;;;;1.92;1.48;;;;;;;24.46;28.41;100308.53;7712774;32;40727;-74
2022/10/19 12:05:26;;;;;;;5.37;1.58;;;;;;;25.17;26.67;100297.78;7712703;32;35534;-73
2022/10/19 12:10:11;;;;;;;3.10;1.60;;;;;;;24.69;27.64;100292.91;7712798;32;37750;-73
2022/10/19 12:14:32;;;;;;;3.10;1.30;;;;;;;24.64;28.38;100287.56;7707630;32;39823;-74
2022/10/19 12:18:59;;;;;;;3.83;1.35;;;;;;;24.78;27.78;100281.59;7699011;32;39995;-74
2022/10/19 12:23:33;;;;;;;1.77;1.40;;;;;;;24.80;27.71;100272.88;7712540;32;37804;-74
2022/10/19 12:27:50;;;;;;;4.78;1.50;;;;;;;23.59;29.93;100272.47;7699621;32;36946;-74
2022/10/19 12:32:07;;;;;;;2.00;1.35;;;;;;;23.75;29.66;100274.50;7712178;32;39583;-73
2022/10/19 12:36:23;;;;;;;2.80;1.73;;;;;;;24.16;29.38;100261.47;7698940;32;39855;-74
2022/10/19 12:41:06;;;;;;;5.72;1.65;;;;;;;24.09;28.94;100269.62;7712264;32;37822;-74
2022/10/19 12:45:51;;;;;;;2.45;1.70;;;;;;;24.22;28.68;100262.06;7700950;32;37183;-74
2022/10/19 12:50:07;;;;;;;1.98;1.52;;;;;;;24.22;27.99;100268.44;7712353;32;40093;-74
2022/10/19 12:54:29;;;;;;;2.97;1.40;;;;;;;24.44;27.05;100260.69;7698502;32;39826;-74
2022/10/19 12:58:49;;;;;;;1.87;1.33;;;;;;;23.60;27.54;100273.25;7712218;32;38061;-74
2022/10/19 13:03:21;;;;;;;7.72;1.80;;;;;;;22.54;28.29;100269.19;7712087;32;36943;-74
2022/10/19 13:07:46;;;;;;;4.78;1.90;;;;;;;23.11;28.18;100267.66;7712135;32;40138;-74
2022/10/19 13:12:15;;;;;;;4.82;2.15;;;;;;;23.62;27.98;100260.59;7712053;32;40103;-74
2022/10/19 13:16:56;;;;;;;5.43;1.87;;;;;;;23.55;26.81;100265.94;7712104;32;38104;-73
2022/10/19 13:21:32;;;;;;;2.53;1.80;;;;;;;23.67;26.52;100264.34;7711657;32;37239;-74
2022/10/19 13:26:08;;;;;;;14.60;2.70;;;;;;;23.31;27.49;100279.84;7700431;32;39394;-74
2022/10/19 13:30:34;;;;;;;2.58;1.87;;;;;;;24.03;27.30;100271.06;7700738;32;39789;-74
2022/10/19 13:34:50;;;;;;;4.37;2.20;;;;;;;23.91;27.11;100278.25;7711915;32;37987;-74
2022/10/19 13:39:12;;;;;;;3.80;2.03;;;;;;;24.26;26.70;100265.75;7711755;32;37159;-76
2022/10/19 13:43:52;;;;;;;2.72;2.08;;;;;;;24.82;26.01;100265.78;7697455;32;39413;-74
2022/10/19 13:48:20;;;;;;;8.35;2.10;;;;;;;24.49;26.67;100257.66;7711668;32;40093;-73
2022/10/19 13:52:39;;;;;;;2.97;1.90;;;;;;;23.89;27.21;100266.66;7711656;32;38851;-74
2022/10/19 13:57:16;;;;;;;4.95;2.20;;;;;;;23.27;26.94;100278.91;7711537;32;37130;-74
2022/10/19 14:02:11;;;;;;;5.72;1.80;;;;;;;23.47;26.83;100288.31;7711483;32;39482;-73
2022/10/19 14:06:46;;;;;;;8.18;2.03;;;;;;;23.11;26.72;100273.22;7688922;32;40802;-74
2022/10/19 14:11:32;;;;;;;3.72;2.00;;;;;;;23.42;26.56;100267.94;7711196;32;37987;-73
2022/10/19 14:15:54;;;;;;;3.10;1.73;;;;;;;23.36;25.00;100274.06;7711206;32;37283;-74
2022/10/19 14:20:31;;;;;;;6.30;2.20;;;;;;;23.67;24.69;100258.78;7711146;32;40256;-74
2022/10/19 14:24:47;;;;;;;3.33;1.80;;;;;;;23.70;25.16;100266.41;7711373;32;41351;-74
2022/10/19 14:29:03;;;;;;;5.25;1.95;;;;;;;23.20;25.04;100260.84;7711024;32;37804;-74
2022/10/19 14:33:19;;;;;;;5.47;2.10;;;;;;;23.12;25.52;100264.53;7697658;32;36824;-73
2022/10/19 14:37:36;;;;;;;3.80;1.80;;;;;;;23.50;24.56;100259.81;7711029;32;39299;-74
2022/10/19 14:41:54;;;;;;;3.75;1.80;;;;;;;24.15;23.68;100254.31;7710789;32;40305;-74
2022/10/19 14:46:15;;;;;;;10.45;1.83;;;;;;;24.60;22.69;100253.22;7710771;32;38731;-74
2022/10/19 14:50:53;;;;;;;2.28;1.60;;;;;;;26.90;19.89;100260.59;7710793;32;37166;-74
2022/10/19 14:55:18;;;;;;;6.53;1.65;;;;;;;28.91;17.28;100254.31;7710427;32;39306;-74
2022/10/19 14:59:45;;;;;;;2.90;1.80;;;;;;;30.54;15.99;100246.59;7710619;32;40008;-74
2022/10/19 15:04:02;;;;;;;12.77;2.55;;;;;;;30.69;15.55;100237.00;7697431;32;37744;-74
2022/10/19 15:08:31;;;;;;;2.35;1.52;;;;;;;29.05;17.09;100234.00;7710269;32;37309;-74
2022/10/19 15:12:49;;;;;;;6.97;1.83;;;;;;;28.82;17.29;100246.19;7710418;32;39927;-75
2022/10/19 15:17:20;;;;;;;2.25;1.55;;;;;;;27.26;18.93;100261.22;7710166;32;38842;-75
2022/10/19 15:21:36;;;;;;;3.83;1.92;;;;;;;25.35;20.99;100285.09;7697702;32;38637;-75
2022/10/19 15:25:59;;;;;;;4.40;2.30;;;;;;;23.84;23.79;100278.03;7709878;32;38017;-74
2022/10/19 15:30:31;;;;;;;5.07;1.98;;;;;;;23.34;24.33;100270.81;7709901;32;40176;-74
2022/10/19 15:34:47;;;;;;;4.05;2.17;;;;;;;21.59;26.79;100280.59;7709690;32;39752;-74
2022/10/19 15:39:06;;;;;;;8.65;2.37;;;;;;;20.10;29.31;100288.34;7709376;32;38718;-74
2022/10/19 15:43:56;;;;;;;6.90;2.83;;;;;;;19.84;30.36;100291.87;7708906;32;37717;-74
2022/10/19 15:48:20;;;;;;;7.65;2.85;;;;;;;18.43;32.57;100301.63;7709426;32;39643;-73
2022/10/19 15:52:37;;;;;;;6.28;2.33;;;;;;;18.48;33.03;100298.75;7695859;32;39861;-74
2022/10/19 15:56:55;;;;;;;7.53;2.80;;;;;;;18.53;32.65;100315.19;7708999;32;38165;-74
2022/10/19 16:01:17;;;;;;;6.60;3.28;;;;;;;17.84;35.04;100318.91;7709129;32;37295;-74
2022/10/19 16:05:35;;;;;;;11.12;5.87;;;;;;;17.70;34.67;100338.22;7697943;32;37267;-74
2022/10/19 16:09:52;;;;;;;14.87;4.43;;;;;;;17.20;35.72;100335.31;7699270;32;41420;-74
2022/10/19 16:14:08;;;;;;;8.85;4.80;;;;;;;16.82;36.57;100340.88;7712573;32;37924;-74
2022/10/19 16:18:24;;;;;;;9.00;4.30;;;;;;;16.62;37.10;100339.25;7712648;32;37102;-73
2022/10/19 16:22:41;;;;;;;6.68;4.28;;;;;;;16.83;36.73;100340.56;7712352;32;39375;-74
2022/10/19 16:26:58;;;;;;;9.80;3.62;;;;;;;16.32;37.81;100352.34;7712489;32;40706;-73
2022/10/19 16:31:14;;;;;;;14.60;5.50;;;;;;;16.51;37.65;100360.59;7698600;32;37893;-74
2022/10/19 16:35:30;;;;;;;6.85;3.22;;;;;;;16.36;38.04;100367.13;7712607;32;38155;-74
2022/10/19 16:39:46;;;;;;;8.93;4.28;;;;;;;16.24;38.40;100366.75;7710438;32;39718;-75
2022/10/19 16:44:03;;;;;;;8.48;4.03;;;;;;;16.14;38.61;100390.53;7712079;32;39994;-74
2022/10/19 16:48:19;;;;;;;9.95;3.70;;;;;;;15.92;39.00;100382.03;7710970;32;38145;-74
2022/10/19 16:52:39;;;;;;;12.65;4.05;;;;;;;15.81;39.45;100380.50;7712183;32;37894;-73
2022/10/19 16:56:55;;;;;;;7.18;3.17;;;;;;;15.87;39.57;100387.59;7711388;32;39290;-73
2022/10/19 17:01:17;;;;;;;7.20;2.95;;;;;;;15.31;40.44;100405.41;7697498;32;40012;-74
2022/10/19 17:05:37;;;;;;;12.98;3.10;;;;;;;15.44;40.33;100407.50;7711645;32;38559;-73
2022/10/19 17:09:54;;;;;;;6.07;3.28;;;;;;;15.13;41.59;100402.28;7706163;32;37364;-74
2022/10/19 17:14:11;;;;;;;10.90;3.05;;;;;;;15.12;41.41;100406.13;7711107;32;39386;-74
2022/10/19 17:18:28;;;;;;;5.93;2.78;;;;;;;14.51;43.14;100417.50;7711806;32;39900;-73
2022/10/19 17:22:44;;;;;;;7.28;3.30;;;;;;;14.85;42.24;100417.59;7711268;32;36679;-73
2022/10/19 17:27:02;;;;;;;3.87;2.62;;;;;;;14.79;42.62;100414.03;7710980;32;37140;-74
2022/10/19 17:31:18;;;;;;;8.45;2.95;;;;;;;14.57;43.53;100436.41;7711383;32;39373;-73
2022/10/19 17:35:34;;;;;;;8.75;3.00;;;;;;;14.75;43.52;100448.66;7711485;32;41102;-73
2022/10/19 17:39:51;;;;;;;6.45;3.30;;;;;;;14.42;44.47;100450.19;7709916;32;38020;-73
2022/10/19 17:44:07;;;;;;;7.05;3.20;;;;;;;14.81;43.38;100452.19;7711472;32;37138;-73
2022/10/19 17:48:23;;;;;;;6.15;3.17;;;;;;;14.63;44.01;100454.50;7711524;32;39146;-74
2022/10/19 17:52:40;;;;;;;6.25;3.10;;;;;;;14.73;44.08;100455.53;7702137;32;40767;-72
2022/10/19 17:56:56;;;;;;;8.57;3.42;;;;;;;14.37;44.17;100458.44;7695801;32;37868;-74
2022/10/19 18:01:13;;;;;;;11.05;4.05;;;;;;;14.41;44.60;100456.78;7711433;32;37078;-73
2022/10/19 18:05:30;;;;;;;8.82;4.30;;;;;;;13.66;46.82;100454.78;7703639;32;244708;-72
2022/10/19 18:09:46;;;;;;;12.65;5.18;;;;;;;13.93;46.51;100457.19;7703230;32;40849;-73
2022/10/19 18:14:03;;;;;;;7.00;3.75;;;;;;;13.90;46.16;100455.00;7710466;32;38011;-72
2022/10/19 18:18:21;;;;;;;11.43;4.85;;;;;;;14.07;46.18;100460.19;7711166;32;36760;-74
2022/10/19 18:22:41;;;;;;;10.27;5.40;;;;;;;13.87;46.91;100445.44;7711030;32;39005;-73
2022/10/19 18:27:02;;;;;;;13.85;5.47;;;;;;;14.00;46.45;100468.69;7710263;32;41734;-74
2022/10/19 18:31:24;;;;;;;8.85;3.92;;;;;;;13.78;46.84;100471.78;7710374;32;38014;-72
2022/10/19 18:35:40;;;;;;;7.22;3.47;;;;;;;13.81;45.83;100473.94;7710357;32;38135;-72
2022/10/19 18:39:56;;;;;;;5.90;2.40;;;;;;;13.85;44.01;100474.22;7710194;32;39516;-71
2022/10/19 18:44:13;;;;;;;7.25;2.37;;;;;;;13.71;43.45;100479.44;7710093;32;39901;-72
2022/10/19 18:48:29;;;;;;;3.90;2.10;;;;;;;13.92;42.07;100491.22;7709967;32;38774;-73
2022/10/19 18:52:45;;;;;;;3.40;2.00;;;;;;;13.82;42.11;100492.03;7708984;32;36842;-73
2022/10/19 18:57:01;;;;;;;3.65;2.22;;;;;;;13.79;42.41;100497.25;7708407;32;39033;-74
2022/10/19 19:01:23;;;;;;;5.50;2.28;;;;;;;13.72;40.87;100492.03;7709356;32;39919;-74
2022/10/19 19:05:40;;;;;;;5.45;2.15;;;;;;;13.88;41.78;100488.19;7709766;32;38518;-73
2022/10/19 19:09:56;;;;;;;6.60;3.00;;;;;;;13.80;42.12;100493.44;7709578;32;37025;-73
2022/10/19 19:14:17;;;;;;;10.77;2.70;;;;;;;14.00;41.26;100492.53;7709406;32;40150;-73
2022/10/19 19:18:34;;;;;;;7.87;3.40;;;;;;;13.47;43.56;100501.94;7708893;32;39886;-73
2022/10/19 19:22:50;;;;;;;5.62;3.15;;;;;;;13.60;43.89;100491.50;7709159;32;38049;-72
2022/10/19 19:27:06;;;;;;;8.82;3.62;;;;;;;13.32;45.26;100500.00;7709247;32;37133;-74
2022/10/19 19:31:23;;;;;;;7.00;3.53;;;;;;;13.32;45.78;100515.59;7709566;32;39312;-73
2022/10/19 19:35:43;;;;;;;10.48;3.47;;;;;;;13.32;45.96;100521.09;7693137;32;39620;-74
2022/10/19 19:39:59;;;;;;;5.03;3.10;;;;;;;13.12;46.90;100533.62;7702605;32;38592;-73
2022/10/19 19:44:16;;;;;;;11.55;3.70;;;;;;;13.33;45.62;100528.19;7712234;32;37590;-73
2022/10/19 19:48:33;;;;;;;9.00;3.25;;;;;;;13.22;46.01;100529.25;7712491;32;39290;-73
2022/10/19 19:52:49;;;;;;;5.15;2.92;;;;;;;13.17;46.18;100524.59;7712123;32;40795;-75
2022/10/19 19:57:06;;;;;;;6.75;2.97;;;;;;;13.50;45.90;100534.25;7711926;32;36574;-73
2022/10/19 20:01:23;;;;;;;6.43;3.35;;;;;;;13.51;45.73;100546.03;7708072;32;37340;-73
2022/10/19 20:05:40;;;;;;;8.30;3.10;;;;;;;13.17;45.61;100545.66;7711362;32;38981;-73